Time;durP1;ratioP1;P1;durP2;ratioP2;P2;SDS_P1;SDS_P2;PMS_P1;PMS_P2;Temp;Humidity;BMP_temperature;BMP_pressure;BME280_temperature;BME280_humidity;BME280_pressure;Samples;Min_cycle;Max_cycle;Signal;HPM_P1;HPM_P2
2022/08/25 00:00:42;;;;;;;39.85;36.17;;;18.50;99.90;;;;;;5064955;28;20040;-42
2022/08/25 00:03:09;;;;;;;40.55;36.60;;;18.50;99.90;;;;;;5063782;28;20123;-43
2022/08/25 00:05:35;;;;;;;40.97;35.78;;;18.60;99.90;;;;;;5058109;28;20830;-41
2022/08/25 00:08:03;;;;;;;39.58;35.97;;;18.60;99.90;;;;;;5065732;28;20468;-43
2022/08/25 00:10:28;;;;;;;37.90;33.92;;;18.40;99.90;;;;;;5035661;28;20416;-41
2022/08/25 00:12:54;;;;;;;35.53;32.30;;;18.30;99.90;;;;;;5067998;28;20456;-42
2022/08/25 00:15:21;;;;;;;37.10;33.45;;;18.30;99.90;;;;;;5063509;28;20610;-42
2022/08/25 00:17:47;;;;;;;36.17;32.78;;;18.20;99.90;;;;;;5065054;28;20101;-41
2022/08/25 00:20:14;;;;;;;33.67;30.30;;;16.60;99.90;;;;;;5064541;28;20040;-42
2022/08/25 00:22:40;;;;;;;30.60;27.75;;;18.30;99.90;;;;;;5064513;28;20047;-42
2022/08/25 00:25:07;;;;;;;33.20;30.05;;;18.20;99.90;;;;;;5066156;28;20044;-48
2022/08/25 00:27:33;;;;;;;33.03;29.83;;;18.30;99.90;;;;;;5063967;28;20436;-42
2022/08/25 00:29:59;;;;;;;35.38;32.10;;;18.30;99.90;;;;;;5064935;28;20033;-42
2022/08/25 00:32:25;;;;;;;35.67;31.38;;;18.30;99.90;;;;;;5064928;28;20045;-44
2022/08/25 00:34:52;;;;;;;35.33;31.85;;;18.10;99.90;;;;;;5063300;28;20097;-42
2022/08/25 00:37:18;;;;;;;31.30;27.92;;;18.20;99.90;;;;;;5062612;28;20461;-42
2022/08/25 00:39:44;;;;;;;29.60;26.70;;;18.10;99.90;;;;;;5063984;28;20044;-44
2022/08/25 00:42:11;;;;;;;23.13;20.85;;;18.00;99.90;;;;;;5064919;28;20047;-43
2022/08/25 00:44:37;;;;;;;26.88;24.17;;;18.20;99.90;;;;;;5045967;28;20113;-41
2022/08/25 00:47:05;;;;;;;20.42;18.20;;;18.20;99.90;;;;;;5053605;28;20041;-44
2022/08/25 00:49:46;;;;;;;21.15;16.73;;;18.40;99.90;;;;;;5065577;28;20466;-42
2022/08/25 00:52:26;;;;;;;20.98;15.07;;;18.30;99.90;;;;;;5065010;28;20048;-42
2022/08/25 00:55:05;;;;;;;17.25;14.38;;;18.30;99.90;;;;;;5068150;28;20036;-41
2022/08/25 00:57:35;;;;;;;16.88;15.07;;;18.40;99.90;;;;;;5068604;28;20052;-41
2022/08/25 01:00:09;;;;;;;13.75;12.27;;;18.60;99.90;;;;;;5066241;28;20038;-42
2022/08/25 01:02:36;;;;;;;14.90;11.98;;;18.70;99.90;;;;;;5064397;28;20603;-43
2022/08/25 01:05:02;;;;;;;15.57;12.57;;;18.70;99.90;;;;;;5066157;28;20048;-42
2022/08/25 01:07:28;;;;;;;13.95;10.90;;;18.80;99.90;;;;;;5067461;28;20089;-43
2022/08/25 01:09:54;;;;;;;13.80;10.85;;;18.70;99.90;;;;;;5068959;28;20048;-44
2022/08/25 01:12:20;;;;;;;14.73;8.15;;;18.90;99.90;;;;;;5067272;28;20151;-42
2022/08/25 01:14:48;;;;;;;11.90;9.93;;;18.90;99.90;;;;;;5064110;28;20029;-42
2022/08/25 01:17:15;;;;;;;12.80;8.63;;;19.00;99.90;;;;;;5068101;28;20059;-42
2022/08/25 01:19:41;;;;;;;9.98;7.13;;;19.00;99.90;;;;;;5069298;28;20046;-46
2022/08/25 01:22:07;;;;;;;8.98;7.55;;;18.80;99.90;;;;;;5065889;28;20036;-43
2022/08/25 01:24:41;;;;;;;11.70;7.90;;;18.90;99.90;;;;;;5051552;28;20047;-44
2022/08/25 01:27:08;;;;;;;13.38;7.25;;;19.10;99.90;;;;;;5065878;28;20041;-43
2022/08/25 01:29:34;;;;;;;11.88;6.38;;;19.10;99.90;;;;;;5068542;28;20036;-43
2022/08/25 01:32:10;;;;;;;11.82;6.80;;;19.00;99.90;;;;;;5067870;28;20048;-46
2022/08/25 01:34:40;;;;;;;9.95;6.15;;;19.00;99.90;;;;;;5063720;28;20492;-42
2022/08/25 01:37:07;;;;;;;9.68;5.97;;;19.00;99.90;;;;;;5052829;28;20044;-42
2022/08/25 01:39:35;;;;;;;11.00;5.53;;;19.00;99.90;;;;;;5063789;28;20127;-44
2022/08/25 01:42:10;;;;;;;10.90;5.32;;;19.20;99.90;;;;;;5041466;28;20032;-46
2022/08/25 01:44:39;;;;;;;8.77;5.13;;;19.20;99.90;;;;;;5062913;28;20048;-47
2022/08/25 01:47:06;;;;;;;9.73;5.00;;;19.30;99.90;;;;;;5064725;28;20516;-41
2022/08/25 01:49:33;;;;;;;11.40;5.10;;;19.10;99.90;;;;;;5065447;28;20630;-45
2022/08/25 01:52:23;;;;;;;9.27;5.13;;;19.30;99.90;;;;;;5050582;28;20048;-42
2022/08/25 01:54:49;;;;;;;9.88;5.60;;;19.10;99.90;;;;;;5067035;28;20427;-45
2022/08/25 01:57:15;;;;;;;14.40;5.85;;;19.40;99.90;;;;;;5068514;28;20147;-41
2022/08/25 01:59:41;;;;;;;9.65;4.45;;;19.40;99.90;;;;;;5046009;28;20044;-41
2022/08/25 02:02:07;;;;;;;10.18;4.47;;;19.40;99.90;;;;;;5065645;28;20054;-43
2022/08/25 02:04:33;;;;;;;9.20;4.47;;;19.40;99.90;;;;;;5067852;28;20492;-44
2022/08/25 02:07:03;;;;;;;8.02;4.20;;;19.50;99.90;;;;;;5064909;28;20943;-44
2022/08/25 02:09:29;;;;;;;8.93;4.10;;;19.40;99.90;;;;;;5063925;28;20061;-43
2022/08/25 02:11:55;;;;;;;7.82;4.00;;;19.30;99.90;;;;;;5066241;28;20032;-43
2022/08/25 02:14:21;;;;;;;10.35;4.45;;;19.10;99.90;;;;;;5065553;28;20207;-44
2022/08/25 02:16:49;;;;;;;9.90;4.03;;;19.30;99.90;;;;;;5065760;28;20059;-45
2022/08/25 02:19:16;;;;;;;8.60;3.60;;;19.30;99.90;;;;;;5067296;28;20040;-44
2022/08/25 02:21:42;;;;;;;7.28;3.55;;;19.30;99.90;;;;;;5066981;28;20345;-47
2022/08/25 02:24:08;;;;;;;8.70;4.00;;;19.30;99.90;;;;;;5064071;28;20063;-43
2022/08/25 02:26:35;;;;;;;9.18;3.97;;;19.40;99.90;;;;;;5051423;28;20448;-46
2022/08/25 02:29:02;;;;;;;9.88;3.92;;;19.20;99.90;;;;;;5067781;28;20081;-45
2022/08/25 02:31:28;;;;;;;6.85;3.30;;;19.20;99.90;;;;;;5051047;28;20102;-44
2022/08/25 02:33:55;;;;;;;9.98;3.70;;;19.20;99.90;;;;;;5065188;28;20048;-42
2022/08/25 02:36:22;;;;;;;8.23;3.92;;;19.30;99.90;;;;;;5061845;28;20048;-42
2022/08/25 02:38:48;;;;;;;9.35;3.80;;;19.20;99.90;;;;;;5060525;28;20768;-44
2022/08/25 02:41:19;;;;;;;8.35;3.90;;;19.10;99.90;;;;;;5054919;28;20282;-45
2022/08/25 02:43:47;;;;;;;9.55;3.97;;;19.10;99.90;;;;;;5064565;28;20499;-45
2022/08/25 02:46:14;;;;;;;7.10;4.18;;;19.10;99.90;;;;;;5063779;28;20123;-42
2022/08/25 02:48:40;;;;;;;8.93;3.92;;;19.20;99.90;;;;;;5063428;28;20623;-46
2022/08/25 02:51:09;;;;;;;7.40;3.63;;;19.10;99.90;;;;;;5066310;28;20159;-43
2022/08/25 02:53:38;;;;;;;9.35;4.25;;;19.10;99.90;;;;;;5062336;28;20036;-46
2022/08/25 02:56:09;;;;;;;9.70;3.95;;;19.10;99.90;;;;;;5065727;28;20046;-45
2022/08/25 02:58:35;;;;;;;7.90;4.28;;;19.10;99.90;;;;;;5065689;28;20151;-42
2022/08/25 03:01:01;;;;;;;7.10;4.70;;;19.00;99.90;;;;;;5065323;28;20093;-43
2022/08/25 03:03:27;;;;;;;7.93;4.75;;;19.10;99.90;;;;;;5064826;28;20072;-46
2022/08/25 03:05:54;;;;;;;10.50;5.28;;;19.00;99.90;;;;;;5068246;28;20428;-44
2022/08/25 03:08:20;;;;;;;9.20;4.75;;;19.00;99.90;;;;;;5066573;28;20566;-44
2022/08/25 03:10:46;;;;;;;7.75;4.60;;;19.10;99.90;;;;;;5062023;28;20332;-41
2022/08/25 03:13:12;;;;;;;8.95;5.43;;;19.00;99.90;;;;;;5062888;28;20032;-47
2022/08/25 03:15:38;;;;;;;12.93;5.55;;;19.00;99.90;;;;;;5062840;28;20032;-43
2022/08/25 03:18:04;;;;;;;13.63;5.65;;;19.00;99.90;;;;;;5065348;28;20052;-45
2022/08/25 03:20:31;;;;;;;7.88;4.93;;;19.00;99.90;;;;;;5064744;28;20044;-43
2022/08/25 03:22:57;;;;;;;10.48;5.82;;;19.00;99.90;;;;;;5065008;28;20041;-44
2022/08/25 03:28:07;;;;;;;11.85;6.13;;;18.90;99.90;;;;;;5040055;28;20102;-44
2022/08/25 03:30:33;;;;;;;8.35;6.05;;;18.90;99.90;;;;;;5063587;28;20048;-45
2022/08/25 03:32:59;;;;;;;7.35;5.43;;;18.70;99.90;;;;;;5063358;28;20291;-45
2022/08/25 03:35:25;;;;;;;14.82;5.72;;;18.80;99.90;;;;;;5063575;28;20039;-41
2022/08/25 03:37:55;;;;;;;9.48;6.13;;;18.70;99.90;;;;;;5066290;28;20396;-44
2022/08/25 03:40:22;;;;;;;9.07;5.28;;;18.70;99.90;;;;;;5045481;28;20543;-44
2022/08/25 03:42:48;;;;;;;9.95;5.18;;;18.80;99.90;;;;;;5067568;28;20881;-46
2022/08/25 03:45:16;;;;;;;11.30;5.90;;;18.50;99.90;;;;;;5064206;28;20070;-42
2022/08/25 03:47:48;;;;;;;12.13;5.35;;;18.80;99.90;;;;;;5061774;28;20044;-43
2022/08/25 03:50:14;;;;;;;13.18;5.22;;;18.80;99.90;;;;;;5065957;28;20055;-43
2022/08/25 03:52:40;;;;;;;9.98;4.80;;;18.60;99.90;;;;;;5067791;28;20111;-47
2022/08/25 03:55:10;;;;;;;8.43;4.45;;;18.90;99.90;;;;;;5063390;28;20101;-46
2022/08/25 03:57:35;;;;;;;9.98;5.03;;;18.70;99.90;;;;;;5061842;28;20128;-44
2022/08/25 04:00:04;;;;;;;9.90;4.68;;;18.40;99.90;;;;;;5044298;28;20044;-43
2022/08/25 04:02:32;;;;;;;10.10;5.30;;;18.60;99.90;;;;;;5062633;28;20123;-44
2022/08/25 04:04:58;;;;;;;7.40;4.72;;;18.60;99.90;;;;;;5030576;28;20052;-43
2022/08/25 04:07:24;;;;;;;10.95;5.57;;;18.70;99.90;;;;;;5064527;28;20105;-46
2022/08/25 04:09:49;;;;;;;10.18;4.82;;;18.60;99.90;;;;;;5061683;28;20043;-42
2022/08/25 04:12:15;;;;;;;9.80;4.93;;;18.50;99.90;;;;;;5060208;28;20156;-46
2022/08/25 04:14:41;;;;;;;9.23;4.35;;;18.40;99.90;;;;;;5063120;28;20135;-45
2022/08/25 04:17:07;;;;;;;7.75;4.68;;;18.40;99.90;;;;;;5065311;28;20127;-45
2022/08/25 04:19:34;;;;;;;13.13;4.70;;;18.60;99.90;;;;;;5065611;28;20088;-47
2022/08/25 04:22:00;;;;;;;10.40;5.20;;;18.50;99.90;;;;;;5061789;28;20074;-47
2022/08/25 04:24:26;;;;;;;6.68;4.30;;;18.20;99.90;;;;;;5063715;28;20040;-47
2022/08/25 04:26:51;;;;;;;10.35;4.57;;;18.30;99.90;;;;;;5048402;28;20955;-46
2022/08/25 04:29:21;;;;;;;10.50;4.45;;;18.40;99.90;;;;;;5067866;28;20052;-44
2022/08/25 04:31:49;;;;;;;9.02;4.20;;;18.40;99.90;;;;;;5069461;28;20412;-47
2022/08/25 04:34:16;;;;;;;11.88;4.75;;;18.30;99.90;;;;;;5067647;28;20572;-46
2022/08/25 04:36:42;;;;;;;9.57;4.45;;;18.30;99.90;;;;;;5069614;28;20032;-47
2022/08/25 04:39:07;;;;;;;9.00;3.80;;;18.30;99.90;;;;;;5069241;28;20043;-46
2022/08/25 04:41:33;;;;;;;7.82;4.38;;;18.40;99.90;;;;;;5067195;28;20040;-44
2022/08/25 04:44:00;;;;;;;11.07;4.25;;;18.20;99.90;;;;;;5067360;28;20047;-42
2022/08/25 04:46:30;;;;;;;9.10;4.22;;;18.40;99.90;;;;;;5068442;28;20105;-45
2022/08/25 04:48:57;;;;;;;7.25;4.03;;;18.40;99.90;;;;;;5068095;28;20040;-46
2022/08/25 04:51:30;;;;;;;8.77;4.30;;;18.40;99.90;;;;;;5061358;28;20471;-45
2022/08/25 04:53:59;;;;;;;10.13;4.47;;;16.60;99.90;;;;;;5049300;28;20900;-46
2022/08/25 04:56:25;;;;;;;8.52;5.15;;;18.30;99.90;;;;;;5065597;28;20241;-45
2022/08/25 04:58:52;;;;;;;11.93;5.32;;;18.30;99.90;;;;;;5067002;28;20040;-46
2022/08/25 05:01:21;;;;;;;12.35;5.22;;;18.50;99.90;;;;;;5065073;28;20434;-45
2022/08/25 05:03:53;;;;;;;15.90;6.50;;;18.40;99.90;;;;;;5064756;28;20045;-46
2022/08/25 05:06:18;;;;;;;9.43;5.80;;;18.30;99.90;;;;;;5047675;28;20048;-45
2022/08/25 05:08:44;;;;;;;9.85;5.32;;;18.40;99.90;;;;;;5037019;28;20037;-46
2022/08/25 05:11:13;;;;;;;9.80;5.43;;;18.30;99.90;;;;;;5066179;28;20413;-47
2022/08/25 05:13:39;;;;;;;10.18;5.50;;;18.40;99.90;;;;;;5065262;28;20421;-43
2022/08/25 05:16:06;;;;;;;9.30;5.28;;;18.50;99.90;;;;;;5060886;28;20047;-44
2022/08/25 05:18:33;;;;;;;9.25;5.60;;;18.60;99.90;;;;;;5066209;28;20119;-47
2022/08/25 05:21:05;;;;;;;8.70;5.28;;;18.60;99.90;;;;;;5064809;28;20044;-47
2022/08/25 05:23:31;;;;;;;9.35;4.97;;;18.50;99.90;;;;;;5067518;28;20102;-43
2022/08/25 05:26:04;;;;;;;9.25;4.60;;;18.50;99.90;;;;;;5065747;28;20078;-46
2022/08/25 05:28:31;;;;;;;10.60;5.60;;;18.50;99.90;;;;;;5068727;28;20140;-46
2022/08/25 05:30:59;;;;;;;7.18;4.32;;;18.60;99.90;;;;;;5064649;28;20090;-45
2022/08/25 05:33:25;;;;;;;9.90;4.80;;;18.70;99.90;;;;;;5068043;28;20506;-46
2022/08/25 05:35:50;;;;;;;12.18;4.50;;;18.80;99.90;;;;;;5065801;28;20044;-47
2022/08/25 05:38:17;;;;;;;9.52;4.80;;;18.70;99.90;;;;;;5064961;28;20083;-43
2022/08/25 05:40:42;;;;;;;9.23;4.32;;;18.70;99.90;;;;;;5062272;28;20589;-47
2022/08/25 05:43:09;;;;;;;9.23;4.50;;;19.00;99.90;;;;;;5064581;28;20041;-44
2022/08/25 05:45:35;;;;;;;11.80;4.68;;;18.90;99.90;;;;;;5068406;28;20040;-43
2022/08/25 05:48:01;;;;;;;7.75;4.55;;;19.00;99.90;;;;;;5066737;28;20043;-43
2022/08/25 05:50:27;;;;;;;8.38;4.60;;;19.10;99.90;;;;;;5070221;28;20036;-45
2022/08/25 05:52:53;;;;;;;10.77;4.60;;;19.10;99.90;;;;;;5064563;28;20033;-45
2022/08/25 05:55:19;;;;;;;11.23;4.35;;;19.30;99.90;;;;;;5065261;28;20101;-47
2022/08/25 05:57:45;;;;;;;11.10;4.30;;;19.30;99.90;;;;;;5066256;28;20048;-43
2022/08/25 06:00:11;;;;;;;7.82;4.13;;;19.40;99.90;;;;;;5067118;28;20078;-44
2022/08/25 06:02:43;;;;;;;8.82;4.30;;;19.70;99.90;;;;;;5063432;28;20044;-46
2022/08/25 06:05:13;;;;;;;7.80;4.03;;;19.70;99.90;;;;;;5067246;28;20115;-43
2022/08/25 06:07:39;;;;;;;9.55;4.57;;;20.00;99.90;;;;;;5047734;28;20578;-45
2022/08/25 06:10:07;;;;;;;12.45;4.30;;;20.10;99.90;;;;;;5065964;28;20036;-42
2022/08/25 06:12:34;;;;;;;10.10;3.75;;;20.50;99.90;;;;;;5067304;28;20127;-42
2022/08/25 06:15:02;;;;;;;7.05;3.40;;;21.00;99.90;;;;;;5066812;28;20788;-46
2022/08/25 06:17:28;;;;;;;6.88;3.85;;;21.80;99.90;;;;;;5045785;28;20052;-47
2022/08/25 06:19:54;;;;;;;8.75;3.97;;;22.40;99.90;;;;;;5037333;28;20596;-44
2022/08/25 06:22:20;;;;;;;8.93;3.40;;;22.70;99.90;;;;;;5064911;28;20043;-45
2022/08/25 06:24:46;;;;;;;6.75;3.63;;;22.80;99.90;;;;;;5067069;28;20504;-47
2022/08/25 06:27:12;;;;;;;6.93;3.05;;;23.80;99.90;;;;;;5064454;28;20050;-46
2022/08/25 06:29:38;;;;;;;7.38;3.47;;;24.50;99.90;;;;;;5069011;28;20043;-47
2022/08/25 06:32:04;;;;;;;12.50;3.50;;;25.20;99.90;;;;;;5040087;28;20078;-45
2022/08/25 06:34:30;;;;;;;6.90;3.13;;;25.60;99.90;;;;;;5065257;28;20115;-45
2022/08/25 06:36:55;;;;;;;6.57;3.25;;;25.30;99.90;;;;;;5066733;28;20174;-45
2022/08/25 06:39:22;;;;;;;7.70;3.10;;;25.20;99.90;;;;;;5065971;28;20075;-46
2022/08/25 06:41:53;;;;;;;6.70;3.55;;;25.20;99.90;;;;;;5061119;28;20048;-45
2022/08/25 06:44:19;;;;;;;8.77;3.00;;;25.70;99.90;;;;;;5065347;28;20091;-47
2022/08/25 06:46:46;;;;;;;7.35;3.30;;;26.10;99.90;;;;;;5063204;28;20052;-46
2022/08/25 06:49:12;;;;;;;9.32;3.05;;;26.60;99.90;;;;;;5063159;28;20048;-46
2022/08/25 06:51:38;;;;;;;11.52;3.30;;;27.00;99.90;;;;;;5061668;28;20086;-48
2022/08/25 06:54:05;;;;;;;6.45;2.83;;;27.50;99.90;;;;;;5063437;28;20048;-47
2022/08/25 06:56:31;;;;;;;5.45;2.90;;;28.00;99.90;;;;;;5062129;28;24218;-48
2022/08/25 06:58:57;;;;;;;6.22;2.72;;;28.90;99.90;;;;;;5065490;28;20504;-47
2022/08/25 07:01:25;;;;;;;7.88;2.97;;;29.20;99.90;;;;;;5068964;28;20044;-48
2022/08/25 07:03:56;;;;;;;7.40;2.97;;;29.50;99.90;;;;;;5069188;28;20038;-45
2022/08/25 07:06:22;;;;;;;7.40;3.05;;;29.80;99.90;;;;;;5064065;28;20114;-47
2022/08/25 07:08:48;;;;;;;6.53;3.10;;;30.20;99.90;;;;;;5063463;28;20400;-45
2022/08/25 07:11:14;;;;;;;7.03;3.00;;;30.70;99.90;;;;;;5066185;28;20039;-48
2022/08/25 07:13:40;;;;;;;8.95;3.20;;;31.10;99.50;;;;;;5065149;28;20519;-47
2022/08/25 07:16:07;;;;;;;5.32;3.03;;;31.10;99.10;;;;;;5023533;28;20048;-47
2022/08/25 07:18:34;;;;;;;8.70;2.95;;;31.50;98.50;;;;;;5038164;28;20036;-47
2022/08/25 07:21:00;;;;;;;8.68;3.15;;;31.50;98.30;;;;;;5065523;28;20059;-47
2022/08/25 07:23:26;;;;;;;6.28;3.10;;;32.10;97.40;;;;;;5066996;28;20052;-46
2022/08/25 07:25:53;;;;;;;10.52;3.58;;;32.10;96.80;;;;;;5065643;28;20238;-47
2022/08/25 07:28:20;;;;;;;6.32;2.95;;;31.60;96.40;;;;;;5065084;28;20126;-45
2022/08/25 07:30:45;;;;;;;9.63;4.00;;;30.60;96.30;;;;;;5065866;28;20130;-46
2022/08/25 07:33:11;;;;;;;7.90;2.95;;;29.60;97.30;;;;;;5045978;28;20208;-48
2022/08/25 07:35:37;;;;;;;8.55;3.10;;;29.40;98.00;;;;;;5046058;28;20074;-48
2022/08/25 07:38:05;;;;;;;8.27;3.05;;;28.60;99.00;;;;;;5064379;28;20067;-44
2022/08/25 07:40:34;;;;;;;7.68;3.22;;;28.10;99.60;;;;;;5060377;28;20032;-47
2022/08/25 07:43:03;;;;;;;7.65;3.20;;;27.80;99.90;;;;;;5064546;28;20049;-45
2022/08/25 07:45:31;;;;;;;6.03;3.08;;;27.60;99.90;;;;;;5064435;28;20052;-48
2022/08/25 07:48:08;;;;;;;11.88;3.30;;;27.70;99.90;;;;;;5067145;28;20054;-48
2022/08/25 07:50:37;;;;;;;6.35;3.38;;;27.90;99.90;;;;;;5062898;28;20044;-43
2022/08/25 07:53:04;;;;;;;8.15;3.42;;;27.80;99.90;;;;;;5068418;28;20385;-48
2022/08/25 07:55:30;;;;;;;7.50;3.67;;;27.30;99.90;;;;;;5064207;28;20040;-48
2022/08/25 07:57:58;;;;;;;6.22;3.28;;;27.10;99.90;;;;;;5020897;28;20056;-46
2022/08/25 08:00:30;;;;;;;8.02;3.40;;;27.30;99.90;;;;;;5067871;28;20043;-48
2022/08/25 08:02:57;;;;;;;6.82;3.20;;;27.50;99.90;;;;;;5067965;28;20104;-45
2022/08/25 08:05:23;;;;;;;6.80;3.45;;;27.40;99.90;;;;;;5034838;28;20544;-47
2022/08/25 08:07:49;;;;;;;9.77;3.13;;;27.40;99.90;;;;;;5067209;28;20504;-55
2022/08/25 08:10:15;;;;;;;7.47;3.40;;;26.90;99.90;;;;;;5066760;28;20052;-56
2022/08/25 08:12:41;;;;;;;11.15;3.13;;;26.60;99.90;;;;;;5050721;28;20093;-55
2022/08/25 08:15:07;;;;;;;7.85;3.47;;;26.80;99.90;;;;;;5066700;28;20043;-55
2022/08/25 08:17:33;;;;;;;8.43;3.60;;;26.60;99.90;;;;;;5067095;28;20033;-55
2022/08/25 08:19:59;;;;;;;8.98;3.20;;;26.30;99.90;;;;;;5065356;28;20043;-53
2022/08/25 08:22:26;;;;;;;9.07;3.63;;;26.30;99.90;;;;;;5045613;28;20738;-56
2022/08/25 08:24:51;;;;;;;10.80;3.45;;;26.20;99.90;;;;;;5064016;28;20102;-55
2022/08/25 08:27:17;;;;;;;6.55;3.22;;;26.20;99.90;;;;;;5027715;28;20032;-55
2022/08/25 08:29:43;;;;;;;7.95;3.13;;;26.30;99.90;;;;;;5061641;28;20033;-55
2022/08/25 08:32:12;;;;;;;11.00;3.90;;;25.90;99.90;;;;;;5059547;28;20131;-55
2022/08/25 08:34:40;;;;;;;10.60;3.30;;;26.20;99.90;;;;;;5062023;28;20307;-55
2022/08/25 08:37:06;;;;;;;9.02;2.92;;;26.20;99.90;;;;;;5059531;28;20515;-56
2022/08/25 08:39:32;;;;;;;7.88;3.03;;;26.20;99.90;;;;;;5062463;28;20060;-56
2022/08/25 08:42:33;;;;;;;4.50;2.72;;;26.20;99.90;;;;;;5062831;28;20440;-56
2022/08/25 08:45:23;;;;;;;5.30;2.63;;;26.30;99.90;;;;;;5059100;28;20059;-56
2022/08/25 08:48:09;;;;;;;6.03;3.08;;;26.40;99.90;;;;;;5062478;28;20048;-54
2022/08/25 08:50:40;;;;;;;7.28;2.70;;;26.40;99.90;;;;;;5064218;28;20113;-55
2022/08/25 08:53:21;;;;;;;8.82;2.67;;;26.30;99.90;;;;;;5060043;28;20070;-54
2022/08/25 08:56:09;;;;;;;7.88;2.78;;;26.30;99.90;;;;;;5055998;28;20059;-54
2022/08/25 08:59:17;;;;;;;9.02;2.90;;;26.50;99.90;;;;;;5063961;28;20861;-56
2022/08/25 09:01:49;;;;;;;8.48;2.75;;;26.50;99.90;;;;;;4973368;28;20081;-55
2022/08/25 09:04:52;;;;;;;7.50;2.63;;;26.50;99.90;;;;;;5043708;28;20067;-55
2022/08/25 09:07:30;;;;;;;7.32;2.67;;;26.40;99.90;;;;;;5007602;28;20518;-56
2022/08/25 09:09:56;;;;;;;5.95;2.15;;;26.40;99.90;;;;;;5063610;28;20401;-56
2022/08/25 09:12:43;;;;;;;6.88;2.53;;;26.40;99.90;;;;;;5059208;28;20458;-54
2022/08/25 09:15:23;;;;;;;6.63;2.30;;;26.70;99.90;;;;;;5067549;28;20055;-55
2022/08/25 09:18:04;;;;;;;11.00;2.75;;;26.70;99.90;;;;;;5068879;28;20135;-55
2022/08/25 09:20:48;;;;;;;5.57;2.50;;;26.80;99.90;;;;;;5068946;28;20553;-55
2022/08/25 09:23:32;;;;;;;8.48;2.92;;;26.90;99.90;;;;;;5070450;28;20832;-55
2022/08/25 09:26:15;;;;;;;7.68;2.45;;;26.80;99.90;;;;;;5070216;28;20471;-54
2022/08/25 09:28:52;;;;;;;7.35;2.47;;;27.00;99.90;;;;;;5048241;28;20563;-57
2022/08/25 09:31:24;;;;;;;4.78;2.55;;;27.20;99.90;;;;;;5074333;28;20043;-55
2022/08/25 09:33:54;;;;;;;9.05;2.65;;;26.70;99.90;;;;;;5070293;28;20047;-55
2022/08/25 09:36:20;;;;;;;5.97;2.25;;;27.20;99.90;;;;;;5067557;28;20044;-56
2022/08/25 09:38:46;;;;;;;6.05;2.65;;;27.20;99.90;;;;;;5061650;28;20112;-55
2022/08/25 09:41:16;;;;;;;5.65;2.45;;;27.30;99.90;;;;;;5061465;28;20047;-55
2022/08/25 09:43:52;;;;;;;6.77;2.60;;;27.70;99.90;;;;;;5068621;28;20040;-55
2022/08/25 09:46:27;;;;;;;5.65;2.30;;;27.80;99.90;;;;;;5061543;28;20052;-54
2022/08/25 09:49:09;;;;;;;9.77;2.58;;;29.50;99.90;;;;;;5062352;28;20584;-56
2022/08/25 09:51:40;;;;;;;5.82;2.13;;;28.00;99.90;;;;;;5063837;28;20147;-55
2022/08/25 09:54:12;;;;;;;13.60;2.63;;;27.90;99.90;;;;;;5047826;28;20040;-54
2022/08/25 09:56:56;;;;;;;5.07;2.40;;;28.00;99.90;;;;;;5064816;28;20059;-56
2022/08/25 09:59:35;;;;;;;6.82;2.17;;;28.20;99.60;;;;;;5059593;28;20048;-54
2022/08/25 10:02:06;;;;;;;8.25;2.25;;;28.30;99.60;;;;;;5064636;28;20115;-55
2022/08/25 10:04:38;;;;;;;6.10;2.15;;;28.50;98.70;;;;;;5065923;28;20101;-55
2022/08/25 10:07:26;;;;;;;7.05;1.85;;;28.50;98.40;;;;;;5062838;28;20043;-56
2022/08/25 10:09:55;;;;;;;5.80;2.17;;;28.60;97.20;;;;;;5064802;28;20131;-56
2022/08/25 10:12:28;;;;;;;6.32;2.13;;;28.40;97.50;;;;;;5052631;28;20044;-55
2022/08/25 10:14:55;;;;;;;6.03;2.58;;;28.70;97.50;;;;;;5064511;28;20101;-55
2022/08/25 10:17:28;;;;;;;7.03;1.80;;;29.00;97.70;;;;;;5062160;28;20048;-56
2022/08/25 10:20:25;;;;;;;5.88;1.88;;;29.20;97.70;;;;;;5071234;28;20036;-56
2022/08/25 10:22:52;;;;;;;7.00;2.63;;;29.50;96.00;;;;;;5062105;28;20044;-55
2022/08/25 10:25:27;;;;;;;5.32;2.10;;;29.40;96.30;;;;;;5063100;28;20105;-56
2022/08/25 10:28:07;;;;;;;10.00;2.25;;;29.80;96.30;;;;;;5062950;28;20042;-55
2022/08/25 10:30:42;;;;;;;5.13;1.98;;;29.80;95.80;;;;;;5060690;28;20033;-56
2022/08/25 10:33:47;;;;;;;6.10;1.95;;;29.90;95.90;;;;;;5043065;28;20386;-55
2022/08/25 10:36:27;;;;;;;8.18;2.10;;;30.00;95.60;;;;;;5045111;28;20044;-56
2022/08/25 10:38:56;;;;;;;5.88;2.15;;;30.10;95.10;;;;;;5061929;28;20295;-56
2022/08/25 10:41:41;;;;;;;6.68;2.30;;;30.20;94.20;;;;;;5059755;28;20372;-55
2022/08/25 10:48:07;;;;;;;7.07;1.98;;;30.30;95.00;;;;;;5064313;28;20453;-56
2022/08/25 10:50:39;;;;;;;8.85;2.00;;;30.30;94.40;;;;;;5058238;28;20047;-56
2022/08/25 10:53:27;;;;;;;6.63;2.10;;;30.40;93.90;;;;;;5059448;28;20041;-56
2022/08/25 10:56:14;;;;;;;5.20;1.80;;;30.60;93.60;;;;;;5066318;28;20081;-55
2022/08/25 10:58:54;;;;;;;5.32;2.00;;;30.70;93.50;;;;;;5057385;28;20043;-56
2022/08/25 11:01:57;;;;;;;5.20;1.83;;;29.10;92.50;;;;;;5067003;28;20067;-56
2022/08/25 11:05:01;;;;;;;5.97;1.88;;;31.00;92.70;;;;;;5040773;28;20064;-55
2022/08/25 11:07:47;;;;;;;3.92;1.50;;;30.90;92.90;;;;;;5036466;28;20538;-56
2022/08/25 11:10:25;;;;;;;4.30;1.83;;;31.20;92.70;;;;;;5062899;28;20106;-56
2022/08/25 11:13:01;;;;;;;4.85;1.80;;;31.20;92.10;;;;;;5062793;28;20048;-56
2022/08/25 11:15:39;;;;;;;6.85;2.00;;;31.20;92.70;;;;;;5059775;28;20143;-56
2022/08/25 11:18:11;;;;;;;8.90;2.35;;;31.30;92.10;;;;;;5056556;28;20047;-56
2022/08/25 11:20:45;;;;;;;13.52;2.20;;;31.40;92.50;;;;;;5064305;28;20040;-56
2022/08/25 11:23:25;;;;;;;6.13;1.88;;;31.60;93.30;;;;;;5066431;28;20052;-55
2022/08/25 11:25:58;;;;;;;8.18;2.50;;;31.80;91.70;;;;;;5068763;28;20044;-56
2022/08/25 11:28:34;;;;;;;4.70;1.98;;;31.70;92.60;;;;;;5067899;28;20530;-56
2022/08/25 11:31:01;;;;;;;4.60;1.70;;;31.80;92.00;;;;;;5064592;28;20036;-55
2022/08/25 11:33:29;;;;;;;6.22;1.88;;;31.60;92.20;;;;;;5059336;28;20047;-56
2022/08/25 11:36:20;;;;;;;8.55;2.00;;;31.70;92.00;;;;;;5060612;28;20195;-56
2022/08/25 11:39:02;;;;;;;5.43;2.20;;;31.70;91.80;;;;;;5038543;28;20114;-56
2022/08/25 11:41:49;;;;;;;7.97;1.90;;;32.00;90.80;;;;;;5059841;28;20048;-56
2022/08/25 11:44:52;;;;;;;5.22;1.67;;;31.80;90.50;;;;;;5061333;28;20064;-56
2022/08/25 11:47:28;;;;;;;6.30;2.17;;;31.80;90.60;;;;;;5062423;28;20868;-56
2022/08/25 11:50:05;;;;;;;5.40;1.77;;;31.70;90.90;;;;;;5052687;28;20045;-55
2022/08/25 11:52:30;;;;;;;6.45;2.10;;;31.80;91.20;;;;;;5056526;28;20533;-56
2022/08/25 11:55:07;;;;;;;6.53;1.75;;;31.90;91.30;;;;;;5059207;28;20040;-56
2022/08/25 11:57:33;;;;;;;4.95;1.85;;;31.70;89.60;;;;;;5056788;28;20033;-56
2022/08/25 12:00:13;;;;;;;7.18;2.00;;;31.80;91.10;;;;;;5059481;28;20048;-56
2022/08/25 12:02:46;;;;;;;6.30;1.77;;;31.80;89.60;;;;;;5068103;28;20047;-56
2022/08/25 12:05:17;;;;;;;5.75;1.90;;;31.40;88.40;;;;;;5055745;28;20119;-56
2022/08/25 12:07:46;;;;;;;5.10;1.80;;;31.60;91.10;;;;;;5035608;28;20051;-56
2022/08/25 12:10:22;;;;;;;3.70;1.77;;;31.40;90.40;;;;;;5062184;28;20044;-43
2022/08/25 12:12:47;;;;;;;4.95;2.20;;;31.40;90.00;;;;;;5032872;28;20070;-45
2022/08/25 12:15:24;;;;;;;5.22;1.85;;;31.50;91.30;;;;;;5065791;28;20117;-47
2022/08/25 12:18:12;;;;;;;5.20;1.85;;;31.70;90.70;;;;;;5063723;28;20044;-42
2022/08/25 12:20:53;;;;;;;4.50;2.03;;;31.40;89.50;;;;;;5067197;28;20468;-47
2022/08/25 12:24:02;;;;;;;7.60;2.05;;;31.40;88.60;;;;;;5062549;28;20036;-44
2022/08/25 12:27:00;;;;;;;4.72;1.90;;;31.50;88.30;;;;;;5060430;28;20052;-47
2022/08/25 12:29:39;;;;;;;6.05;1.90;;;31.70;89.10;;;;;;5063183;28;20067;-45
2022/08/25 12:32:13;;;;;;;6.47;2.53;;;31.50;87.70;;;;;;5054708;28;20072;-47
2022/08/25 12:34:52;;;;;;;6.97;1.90;;;31.50;89.40;;;;;;5065776;28;20051;-46
2022/08/25 12:37:20;;;;;;;4.20;1.90;;;31.20;89.00;;;;;;5068333;28;20040;-43
2022/08/25 12:39:49;;;;;;;4.50;1.90;;;31.40;90.00;;;;;;5068006;28;20531;-44
2022/08/25 12:42:38;;;;;;;9.32;2.38;;;31.60;90.20;;;;;;5062752;28;20062;-44
2022/08/25 12:45:31;;;;;;;4.88;1.70;;;31.70;90.80;;;;;;5063180;28;20512;-46
2022/08/25 12:48:26;;;;;;;6.68;1.85;;;31.70;90.00;;;;;;5056123;28;20455;-48
2022/08/25 12:51:06;;;;;;;4.18;2.00;;;31.70;87.60;;;;;;5063164;28;20493;-45
2022/08/25 12:53:39;;;;;;;4.18;1.80;;;31.50;88.70;;;;;;5067143;28;20045;-47
2022/08/25 12:56:22;;;;;;;7.20;1.95;;;31.60;89.80;;;;;;5065502;28;20047;-47
2022/08/25 12:59:02;;;;;;;7.75;2.10;;;31.90;87.80;;;;;;5066403;28;20425;-47
2022/08/25 13:01:53;;;;;;;5.50;1.80;;;31.70;89.20;;;;;;5046452;28;20068;-45
2022/08/25 13:04:48;;;;;;;7.32;2.10;;;31.70;86.80;;;;;;5071394;28;20071;-45
2022/08/25 13:07:45;;;;;;;3.95;1.67;;;31.70;85.80;;;;;;5062408;28;20141;-47
2022/08/25 13:10:28;;;;;;;7.22;1.88;;;31.70;90.10;;;;;;5061828;28;20126;-45